sensor_id;sensor_type;location;lat;lon;timestamp;P1;durP1;ratioP1;P2;durP2;ratioP2
19329;SDS011;9799;48.214;16.388;2023-06-10T00:02:37;6.85;;;5.63;;
19329;SDS011;9799;48.214;16.388;2023-06-10T00:05:58;5.90;;;5.25;;
19329;SDS011;9799;48.214;16.388;2023-06-10T00:09:19;6.50;;;5.72;;
19329;SDS011;9799;48.214;16.388;2023-06-10T00:12:43;5.72;;;5.22;;
19329;SDS011;9799;48.214;16.388;2023-06-10T00:16:04;7.22;;;5.68;;
19329;SDS011;9799;48.214;16.388;2023-06-10T00:19:25;6.78;;;6.07;;
19329;SDS011;9799;48.214;16.388;2023-06-10T00:22:49;6.78;;;6.18;;
19329;SDS011;9799;48.214;16.388;2023-06-10T00:26:10;6.07;;;5.50;;
19329;SDS011;9799;48.214;16.388;2023-06-10T00:29:33;6.53;;;5.85;;
19329;SDS011;9799;48.214;16.388;2023-06-10T00:32:54;5.90;;;5.30;;
19329;SDS011;9799;48.214;16.388;2023-06-10T00:36:15;6.13;;;5.53;;
19329;SDS011;9799;48.214;16.388;2023-06-10T00:39:36;6.35;;;4.97;;
19329;SDS011;9799;48.214;16.388;2023-06-10T00:42:57;6.18;;;5.57;;
19329;SDS011;9799;48.214;16.388;2023-06-10T00:46:20;7.65;;;5.93;;
19329;SDS011;9799;48.214;16.388;2023-06-10T00:49:43;6.35;;;5.75;;
19329;SDS011;9799;48.214;16.388;2023-06-10T00:53:05;7.53;;;6.00;;
19329;SDS011;9799;48.214;16.388;2023-06-10T00:56:26;6.50;;;5.82;;
19329;SDS011;9799;48.214;16.388;2023-06-10T00:59:48;6.47;;;5.88;;
19329;SDS011;9799;48.214;16.388;2023-06-10T01:03:11;6.18;;;5.60;;
19329;SDS011;9799;48.214;16.388;2023-06-10T01:06:38;6.82;;;6.10;;
19329;SDS011;9799;48.214;16.388;2023-06-10T01:10:09;7.07;;;6.35;;
19329;SDS011;9799;48.214;16.388;2023-06-10T01:13:36;6.28;;;5.57;;
19329;SDS011;9799;48.214;16.388;2023-06-10T01:17:00;6.90;;;6.28;;
19329;SDS011;9799;48.214;16.388;2023-06-10T01:20:24;6.70;;;6.00;;
19329;SDS011;9799;48.214;16.388;2023-06-10T01:23:47;6.30;;;5.72;;
19329;SDS011;9799;48.214;16.388;2023-06-10T01:27:10;7.05;;;6.35;;
19329;SDS011;9799;48.214;16.388;2023-06-10T01:30:37;7.65;;;6.47;;
19329;SDS011;9799;48.214;16.388;2023-06-10T01:34:06;7.03;;;6.32;;
19329;SDS011;9799;48.214;16.388;2023-06-10T01:37:30;9.65;;;6.35;;
19329;SDS011;9799;48.214;16.388;2023-06-10T01:40:54;7.32;;;6.63;;
19329;SDS011;9799;48.214;16.388;2023-06-10T01:44:17;8.18;;;7.38;;
19329;SDS011;9799;48.214;16.388;2023-06-10T01:47:39;8.10;;;7.30;;
19329;SDS011;9799;48.214;16.388;2023-06-10T01:51:00;8.63;;;7.82;;
19329;SDS011;9799;48.214;16.388;2023-06-10T01:54:21;8.38;;;7.57;;
19329;SDS011;9799;48.214;16.388;2023-06-10T01:57:43;8.63;;;7.72;;
19329;SDS011;9799;48.214;16.388;2023-06-10T02:01:05;12.95;;;9.50;;
19329;SDS011;9799;48.214;16.388;2023-06-10T02:04:26;9.48;;;8.60;;
19329;SDS011;9799;48.214;16.388;2023-06-10T02:07:47;13.52;;;9.13;;
19329;SDS011;9799;48.214;16.388;2023-06-10T02:11:08;10.82;;;9.75;;
19329;SDS011;9799;48.214;16.388;2023-06-10T02:14:31;10.90;;;9.85;;
19329;SDS011;9799;48.214;16.388;2023-06-10T02:17:53;10.77;;;9.77;;
19329;SDS011;9799;48.214;16.388;2023-06-10T02:21:15;11.65;;;10.55;;
19329;SDS011;9799;48.214;16.388;2023-06-10T02:24:36;15.65;;;10.38;;
19329;SDS011;9799;48.214;16.388;2023-06-10T02:27:58;12.57;;;10.55;;
19329;SDS011;9799;48.214;16.388;2023-06-10T02:31:20;12.00;;;9.77;;
19329;SDS011;9799;48.214;16.388;2023-06-10T02:34:43;10.95;;;9.90;;
19329;SDS011;9799;48.214;16.388;2023-06-10T02:38:05;12.23;;;9.45;;
19329;SDS011;9799;48.214;16.388;2023-06-10T02:41:26;11.20;;;10.00;;
19329;SDS011;9799;48.214;16.388;2023-06-10T02:44:48;10.82;;;9.63;;
19329;SDS011;9799;48.214;16.388;2023-06-10T02:48:10;12.90;;;11.20;;
19329;SDS011;9799;48.214;16.388;2023-06-10T02:51:31;11.93;;;10.02;;
19329;SDS011;9799;48.214;16.388;2023-06-10T02:54:53;11.75;;;10.60;;
19329;SDS011;9799;48.214;16.388;2023-06-10T02:58:14;11.98;;;10.57;;
19329;SDS011;9799;48.214;16.388;2023-06-10T03:01:35;11.32;;;10.23;;
19329;SDS011;9799;48.214;16.388;2023-06-10T03:04:58;11.95;;;10.82;;
19329;SDS011;9799;48.214;16.388;2023-06-10T03:08:19;11.98;;;10.88;;
19329;SDS011;9799;48.214;16.388;2023-06-10T03:11:40;15.38;;;10.55;;
19329;SDS011;9799;48.214;16.388;2023-06-10T03:15:01;11.43;;;10.30;;
19329;SDS011;9799;48.214;16.388;2023-06-10T03:18:25;12.43;;;10.90;;
19329;SDS011;9799;48.214;16.388;2023-06-10T03:21:49;14.80;;;11.30;;
19329;SDS011;9799;48.214;16.388;2023-06-10T03:25:18;10.43;;;9.40;;
19329;SDS011;9799;48.214;16.388;2023-06-10T03:28:40;11.13;;;10.07;;
19329;SDS011;9799;48.214;16.388;2023-06-10T03:32:01;12.13;;;9.75;;
19329;SDS011;9799;48.214;16.388;2023-06-10T03:35:22;14.98;;;10.05;;
19329;SDS011;9799;48.214;16.388;2023-06-10T03:38:45;11.00;;;9.90;;
19329;SDS011;9799;48.214;16.388;2023-06-10T03:42:06;10.82;;;9.73;;
19329;SDS011;9799;48.214;16.388;2023-06-10T03:45:27;11.73;;;10.13;;
19329;SDS011;9799;48.214;16.388;2023-06-10T03:48:48;10.30;;;9.30;;
19329;SDS011;9799;48.214;16.388;2023-06-10T03:52:10;12.30;;;10.30;;
19329;SDS011;9799;48.214;16.388;2023-06-10T03:55:32;13.57;;;11.27;;
19329;SDS011;9799;48.214;16.388;2023-06-10T03:58:54;13.50;;;10.10;;
19329;SDS011;9799;48.214;16.388;2023-06-10T04:02:15;11.55;;;10.35;;
19329;SDS011;9799;48.214;16.388;2023-06-10T04:05:37;14.82;;;11.40;;
19329;SDS011;9799;48.214;16.388;2023-06-10T04:08:59;12.05;;;10.85;;
19329;SDS011;9799;48.214;16.388;2023-06-10T04:12:21;11.82;;;10.63;;
19329;SDS011;9799;48.214;16.388;2023-06-10T04:15:45;13.65;;;11.90;;
19329;SDS011;9799;48.214;16.388;2023-06-10T04:19:07;14.88;;;11.07;;
19329;SDS011;9799;48.214;16.388;2023-06-10T04:22:28;12.77;;;11.43;;
19329;SDS011;9799;48.214;16.388;2023-06-10T04:25:49;13.98;;;12.35;;
19329;SDS011;9799;48.214;16.388;2023-06-10T04:29:12;16.08;;;11.90;;
19329;SDS011;9799;48.214;16.388;2023-06-10T04:32:33;14.55;;;13.00;;
19329;SDS011;9799;48.214;16.388;2023-06-10T04:35:54;15.07;;;13.20;;
19329;SDS011;9799;48.214;16.388;2023-06-10T04:39:15;17.90;;;13.02;;
19329;SDS011;9799;48.214;16.388;2023-06-10T04:42:37;21.17;;;13.05;;
19329;SDS011;9799;48.214;16.388;2023-06-10T04:45:59;19.00;;;14.45;;
19329;SDS011;9799;48.214;16.388;2023-06-10T04:49:21;14.55;;;12.98;;
19329;SDS011;9799;48.214;16.388;2023-06-10T04:52:42;18.13;;;13.35;;
19329;SDS011;9799;48.214;16.388;2023-06-10T04:56:04;17.85;;;13.65;;
19329;SDS011;9799;48.214;16.388;2023-06-10T04:59:26;16.90;;;13.75;;
19329;SDS011;9799;48.214;16.388;2023-06-10T05:02:50;17.20;;;14.55;;
19329;SDS011;9799;48.214;16.388;2023-06-10T05:06:11;19.60;;;15.57;;
19329;SDS011;9799;48.214;16.388;2023-06-10T05:09:33;16.25;;;14.55;;
19329;SDS011;9799;48.214;16.388;2023-06-10T05:12:54;16.23;;;14.63;;
19329;SDS011;9799;48.214;16.388;2023-06-10T05:16:15;15.73;;;14.02;;
19329;SDS011;9799;48.214;16.388;2023-06-10T05:19:37;16.92;;;14.13;;
19329;SDS011;9799;48.214;16.388;2023-06-10T05:22:59;14.80;;;13.32;;
19329;SDS011;9799;48.214;16.388;2023-06-10T05:26:20;17.85;;;15.07;;
19329;SDS011;9799;48.214;16.388;2023-06-10T05:29:41;15.13;;;13.43;;
19329;SDS011;9799;48.214;16.388;2023-06-10T05:33:02;19.58;;;14.02;;
19329;SDS011;9799;48.214;16.388;2023-06-10T05:36:25;18.80;;;14.43;;
19329;SDS011;9799;48.214;16.388;2023-06-10T05:39:46;19.90;;;16.58;;
19329;SDS011;9799;48.214;16.388;2023-06-10T05:43:08;17.13;;;15.20;;
19329;SDS011;9799;48.214;16.388;2023-06-10T05:46:30;17.65;;;15.57;;
19329;SDS011;9799;48.214;16.388;2023-06-10T05:49:51;19.77;;;16.60;;
19329;SDS011;9799;48.214;16.388;2023-06-10T05:53:14;17.98;;;16.08;;
19329;SDS011;9799;48.214;16.388;2023-06-10T05:56:35;18.33;;;15.80;;
19329;SDS011;9799;48.214;16.388;2023-06-10T05:59:56;20.77;;;16.42;;
19329;SDS011;9799;48.214;16.388;2023-06-10T06:03:17;18.42;;;15.02;;
19329;SDS011;9799;48.214;16.388;2023-06-10T06:06:39;23.20;;;17.65;;
19329;SDS011;9799;48.214;16.388;2023-06-10T06:10:02;19.95;;;15.63;;
19329;SDS011;9799;48.214;16.388;2023-06-10T06:13:24;18.48;;;16.50;;
19329;SDS011;9799;48.214;16.388;2023-06-10T06:16:45;20.90;;;17.63;;
19329;SDS011;9799;48.214;16.388;2023-06-10T06:20:06;19.35;;;16.20;;
19329;SDS011;9799;48.214;16.388;2023-06-10T06:23:28;22.45;;;17.90;;
19329;SDS011;9799;48.214;16.388;2023-06-10T06:26:51;24.55;;;19.80;;
19329;SDS011;9799;48.214;16.388;2023-06-10T06:30:12;23.08;;;18.88;;
19329;SDS011;9799;48.214;16.388;2023-06-10T06:33:33;22.73;;;18.35;;
19329;SDS011;9799;48.214;16.388;2023-06-10T06:36:55;23.90;;;17.60;;
19329;SDS011;9799;48.214;16.388;2023-06-10T06:40:16;27.58;;;18.23;;
19329;SDS011;9799;48.214;16.388;2023-06-10T06:43:38;23.52;;;18.02;;
19329;SDS011;9799;48.214;16.388;2023-06-10T06:46:59;20.25;;;17.90;;
19329;SDS011;9799;48.214;16.388;2023-06-10T06:50:21;23.15;;;18.30;;
19329;SDS011;9799;48.214;16.388;2023-06-10T06:53:42;23.58;;;17.40;;
19329;SDS011;9799;48.214;16.388;2023-06-10T06:57:05;26.15;;;17.60;;
19329;SDS011;9799;48.214;16.388;2023-06-10T07:00:28;17.80;;;15.68;;
19329;SDS011;9799;48.214;16.388;2023-06-10T07:03:50;19.88;;;17.73;;
19329;SDS011;9799;48.214;16.388;2023-06-10T07:07:11;22.63;;;17.48;;
19329;SDS011;9799;48.214;16.388;2023-06-10T07:10:32;20.52;;;17.90;;
19329;SDS011;9799;48.214;16.388;2023-06-10T07:13:53;20.20;;;18.02;;
19329;SDS011;9799;48.214;16.388;2023-06-10T07:17:16;21.08;;;18.73;;
19329;SDS011;9799;48.214;16.388;2023-06-10T07:20:38;26.48;;;20.60;;
19329;SDS011;9799;48.214;16.388;2023-06-10T07:23:59;22.63;;;18.17;;
19329;SDS011;9799;48.214;16.388;2023-06-10T07:27:20;21.85;;;18.45;;
19329;SDS011;9799;48.214;16.388;2023-06-10T07:30:41;22.50;;;19.63;;
19329;SDS011;9799;48.214;16.388;2023-06-10T07:34:04;23.40;;;18.40;;
19329;SDS011;9799;48.214;16.388;2023-06-10T07:37:25;21.02;;;17.83;;
19329;SDS011;9799;48.214;16.388;2023-06-10T07:40:46;21.83;;;17.65;;
19329;SDS011;9799;48.214;16.388;2023-06-10T07:44:07;20.65;;;18.50;;
19329;SDS011;9799;48.214;16.388;2023-06-10T07:47:29;21.45;;;18.52;;
19329;SDS011;9799;48.214;16.388;2023-06-10T07:50:51;19.80;;;17.67;;
19329;SDS011;9799;48.214;16.388;2023-06-10T07:54:12;21.65;;;17.55;;
19329;SDS011;9799;48.214;16.388;2023-06-10T07:57:34;20.40;;;17.77;;
19329;SDS011;9799;48.214;16.388;2023-06-10T08:00:56;24.15;;;17.75;;
19329;SDS011;9799;48.214;16.388;2023-06-10T08:04:17;20.52;;;16.88;;
19329;SDS011;9799;48.214;16.388;2023-06-10T08:07:40;19.67;;;17.02;;
19329;SDS011;9799;48.214;16.388;2023-06-10T08:11:01;18.80;;;16.52;;
19329;SDS011;9799;48.214;16.388;2023-06-10T08:14:22;20.77;;;16.48;;
19329;SDS011;9799;48.214;16.388;2023-06-10T08:17:43;24.85;;;17.80;;
19329;SDS011;9799;48.214;16.388;2023-06-10T08:21:05;19.02;;;17.08;;
19329;SDS011;9799;48.214;16.388;2023-06-10T08:24:27;21.20;;;17.20;;
19329;SDS011;9799;48.214;16.388;2023-06-10T08:27:48;19.30;;;17.30;;
19329;SDS011;9799;48.214;16.388;2023-06-10T08:31:10;19.70;;;16.95;;
19329;SDS011;9799;48.214;16.388;2023-06-10T08:37:53;19.88;;;17.65;;
19329;SDS011;9799;48.214;16.388;2023-06-10T08:41:17;24.27;;;16.95;;
19329;SDS011;9799;48.214;16.388;2023-06-10T08:44:40;19.33;;;17.25;;
19329;SDS011;9799;48.214;16.388;2023-06-10T08:48:02;19.35;;;17.30;;
19329;SDS011;9799;48.214;16.388;2023-06-10T08:51:25;19.55;;;17.55;;
19329;SDS011;9799;48.214;16.388;2023-06-10T08:54:48;19.35;;;17.30;;
19329;SDS011;9799;48.214;16.388;2023-06-10T08:58:18;18.23;;;16.27;;
19329;SDS011;9799;48.214;16.388;2023-06-10T09:01:40;19.33;;;15.95;;
19329;SDS011;9799;48.214;16.388;2023-06-10T09:05:02;19.73;;;17.40;;
19329;SDS011;9799;48.214;16.388;2023-06-10T09:08:24;23.23;;;18.23;;
19329;SDS011;9799;48.214;16.388;2023-06-10T09:11:45;18.73;;;16.75;;
19329;SDS011;9799;48.214;16.388;2023-06-10T09:15:08;20.48;;;17.25;;
19329;SDS011;9799;48.214;16.388;2023-06-10T09:18:31;17.98;;;15.80;;
19329;SDS011;9799;48.214;16.388;2023-06-10T09:21:53;17.98;;;16.15;;
19329;SDS011;9799;48.214;16.388;2023-06-10T09:25:15;20.05;;;17.95;;
19329;SDS011;9799;48.214;16.388;2023-06-10T09:28:36;19.75;;;17.65;;
19329;SDS011;9799;48.214;16.388;2023-06-10T09:32:00;21.25;;;16.85;;
19329;SDS011;9799;48.214;16.388;2023-06-10T09:35:22;19.05;;;16.77;;
19329;SDS011;9799;48.214;16.388;2023-06-10T09:38:43;20.90;;;16.27;;
19329;SDS011;9799;48.214;16.388;2023-06-10T09:42:15;17.63;;;15.75;;
19329;SDS011;9799;48.214;16.388;2023-06-10T09:45:37;19.75;;;17.40;;
19329;SDS011;9799;48.214;16.388;2023-06-10T09:49:00;18.92;;;16.92;;
19329;SDS011;9799;48.214;16.388;2023-06-10T09:52:21;18.25;;;15.95;;
19329;SDS011;9799;48.214;16.388;2023-06-10T09:55:43;18.40;;;16.52;;
19329;SDS011;9799;48.214;16.388;2023-06-10T09:59:05;18.77;;;16.08;;
19329;SDS011;9799;48.214;16.388;2023-06-10T10:02:26;17.50;;;15.75;;
19329;SDS011;9799;48.214;16.388;2023-06-10T10:05:49;17.65;;;15.77;;
19329;SDS011;9799;48.214;16.388;2023-06-10T10:09:17;20.25;;;15.35;;
19329;SDS011;9799;48.214;16.388;2023-06-10T10:12:39;16.33;;;14.63;;
19329;SDS011;9799;48.214;16.388;2023-06-10T10:16:01;16.70;;;15.10;;
19329;SDS011;9799;48.214;16.388;2023-06-10T10:19:28;16.45;;;14.73;;
19329;SDS011;9799;48.214;16.388;2023-06-10T10:22:54;14.88;;;13.38;;
19329;SDS011;9799;48.214;16.388;2023-06-10T10:26:18;15.57;;;13.38;;
19329;SDS011;9799;48.214;16.388;2023-06-10T10:29:40;16.35;;;14.75;;
19329;SDS011;9799;48.214;16.388;2023-06-10T10:33:08;15.65;;;14.10;;
19329;SDS011;9799;48.214;16.388;2023-06-10T10:36:33;20.83;;;16.75;;
19329;SDS011;9799;48.214;16.388;2023-06-10T10:39:57;16.38;;;14.68;;
19329;SDS011;9799;48.214;16.388;2023-06-10T10:43:20;15.75;;;14.13;;
19329;SDS011;9799;48.214;16.388;2023-06-10T10:46:42;16.65;;;14.95;;
19329;SDS011;9799;48.214;16.388;2023-06-10T10:50:12;16.13;;;14.52;;
19329;SDS011;9799;48.214;16.388;2023-06-10T10:53:36;15.85;;;14.10;;
19329;SDS011;9799;48.214;16.388;2023-06-10T10:57:15;15.23;;;13.82;;
19329;SDS011;9799;48.214;16.388;2023-06-10T11:00:41;15.10;;;13.70;;
19329;SDS011;9799;48.214;16.388;2023-06-10T11:04:05;14.50;;;13.15;;
19329;SDS011;9799;48.214;16.388;2023-06-10T11:07:30;14.85;;;13.45;;
19329;SDS011;9799;48.214;16.388;2023-06-10T11:10:52;15.23;;;13.68;;
19329;SDS011;9799;48.214;16.388;2023-06-10T11:14:14;15.30;;;13.85;;
19329;SDS011;9799;48.214;16.388;2023-06-10T11:21:59;15.40;;;13.90;;
19329;SDS011;9799;48.214;16.388;2023-06-10T11:25:21;14.30;;;12.82;;
19329;SDS011;9799;48.214;16.388;2023-06-10T11:29:06;16.02;;;14.52;;
19329;SDS011;9799;48.214;16.388;2023-06-10T11:32:30;13.45;;;12.15;;
19329;SDS011;9799;48.214;16.388;2023-06-10T11:35:52;12.38;;;11.18;;
19329;SDS011;9799;48.214;16.388;2023-06-10T11:39:14;12.95;;;11.65;;
19329;SDS011;9799;48.214;16.388;2023-06-10T11:42:38;15.93;;;12.32;;
19329;SDS011;9799;48.214;16.388;2023-06-10T11:46:00;13.50;;;12.20;;
19329;SDS011;9799;48.214;16.388;2023-06-10T11:49:23;12.63;;;11.43;;
19329;SDS011;9799;48.214;16.388;2023-06-10T11:52:44;13.50;;;12.32;;
19329;SDS011;9799;48.214;16.388;2023-06-10T11:56:05;13.73;;;12.27;;
19329;SDS011;9799;48.214;16.388;2023-06-10T11:59:27;12.77;;;11.63;;
19329;SDS011;9799;48.214;16.388;2023-06-10T12:02:54;13.70;;;12.30;;
19329;SDS011;9799;48.214;16.388;2023-06-10T12:06:18;13.20;;;11.75;;
19329;SDS011;9799;48.214;16.388;2023-06-10T12:09:39;13.57;;;12.27;;
19329;SDS011;9799;48.214;16.388;2023-06-10T12:13:00;12.82;;;11.48;;
19329;SDS011;9799;48.214;16.388;2023-06-10T12:16:21;12.80;;;11.60;;
19329;SDS011;9799;48.214;16.388;2023-06-10T12:19:43;12.25;;;11.07;;
19329;SDS011;9799;48.214;16.388;2023-06-10T12:23:09;12.30;;;10.95;;
19329;SDS011;9799;48.214;16.388;2023-06-10T12:26:34;12.40;;;11.20;;
19329;SDS011;9799;48.214;16.388;2023-06-10T12:29:57;12.98;;;11.32;;
19329;SDS011;9799;48.214;16.388;2023-06-10T12:33:22;12.20;;;11.10;;
19329;SDS011;9799;48.214;16.388;2023-06-10T12:36:47;17.98;;;11.63;;
19329;SDS011;9799;48.214;16.388;2023-06-10T12:40:10;12.50;;;11.30;;
19329;SDS011;9799;48.214;16.388;2023-06-10T12:43:35;14.98;;;12.40;;
19329;SDS011;9799;48.214;16.388;2023-06-10T12:46:56;12.13;;;10.95;;
19329;SDS011;9799;48.214;16.388;2023-06-10T12:50:17;11.35;;;10.18;;
19329;SDS011;9799;48.214;16.388;2023-06-10T12:53:38;12.85;;;11.63;;
19329;SDS011;9799;48.214;16.388;2023-06-10T12:57:01;13.05;;;11.75;;
19329;SDS011;9799;48.214;16.388;2023-06-10T13:00:22;14.10;;;12.70;;
19329;SDS011;9799;48.214;16.388;2023-06-10T13:03:45;14.02;;;12.43;;
19329;SDS011;9799;48.214;16.388;2023-06-10T13:07:07;13.90;;;12.57;;
19329;SDS011;9799;48.214;16.388;2023-06-10T13:10:30;12.25;;;10.88;;
19329;SDS011;9799;48.214;16.388;2023-06-10T13:13:52;12.43;;;11.18;;
19329;SDS011;9799;48.214;16.388;2023-06-10T13:17:13;11.98;;;10.77;;
19329;SDS011;9799;48.214;16.388;2023-06-10T13:20:34;11.30;;;10.05;;
19329;SDS011;9799;48.214;16.388;2023-06-10T13:23:55;13.23;;;11.93;;
19329;SDS011;9799;48.214;16.388;2023-06-10T13:27:16;11.73;;;10.63;;
19329;SDS011;9799;48.214;16.388;2023-06-10T13:30:39;11.68;;;10.57;;
19329;SDS011;9799;48.214;16.388;2023-06-10T13:34:00;11.98;;;10.82;;
19329;SDS011;9799;48.214;16.388;2023-06-10T13:37:21;12.13;;;10.98;;
19329;SDS011;9799;48.214;16.388;2023-06-10T13:40:42;12.65;;;11.45;;
19329;SDS011;9799;48.214;16.388;2023-06-10T13:44:04;13.23;;;11.82;;
19329;SDS011;9799;48.214;16.388;2023-06-10T13:47:26;12.98;;;11.77;;
19329;SDS011;9799;48.214;16.388;2023-06-10T13:50:48;13.35;;;11.55;;
19329;SDS011;9799;48.214;16.388;2023-06-10T13:54:09;14.32;;;12.60;;
19329;SDS011;9799;48.214;16.388;2023-06-10T13:57:33;13.88;;;12.43;;
19329;SDS011;9799;48.214;16.388;2023-06-10T14:00:54;13.93;;;12.63;;
19329;SDS011;9799;48.214;16.388;2023-06-10T14:04:17;13.40;;;12.13;;
19329;SDS011;9799;48.214;16.388;2023-06-10T14:07:38;13.82;;;12.48;;
19329;SDS011;9799;48.214;16.388;2023-06-10T14:11:00;14.43;;;13.02;;
19329;SDS011;9799;48.214;16.388;2023-06-10T14:14:21;24.15;;;21.85;;
19329;SDS011;9799;48.214;16.388;2023-06-10T14:17:42;16.42;;;14.73;;
19329;SDS011;9799;48.214;16.388;2023-06-10T14:21:05;15.30;;;13.77;;
19329;SDS011;9799;48.214;16.388;2023-06-10T14:24:26;15.25;;;13.68;;
19329;SDS011;9799;48.214;16.388;2023-06-10T14:27:47;15.35;;;13.93;;
19329;SDS011;9799;48.214;16.388;2023-06-10T14:31:09;15.88;;;14.27;;
19329;SDS011;9799;48.214;16.388;2023-06-10T14:34:30;14.15;;;12.82;;
19329;SDS011;9799;48.214;16.388;2023-06-10T14:37:54;15.60;;;14.10;;
19329;SDS011;9799;48.214;16.388;2023-06-10T14:41:15;14.85;;;13.35;;
19329;SDS011;9799;48.214;16.388;2023-06-10T14:44:36;14.30;;;12.90;;
19329;SDS011;9799;48.214;16.388;2023-06-10T14:47:57;15.00;;;13.50;;
19329;SDS011;9799;48.214;16.388;2023-06-10T14:51:19;15.02;;;13.52;;
19329;SDS011;9799;48.214;16.388;2023-06-10T14:54:41;17.27;;;13.38;;
19329;SDS011;9799;48.214;16.388;2023-06-10T14:58:03;15.88;;;14.27;;
19329;SDS011;9799;48.214;16.388;2023-06-10T15:01:24;14.38;;;12.85;;
19329;SDS011;9799;48.214;16.388;2023-06-10T15:04:45;13.65;;;12.32;;
19329;SDS011;9799;48.214;16.388;2023-06-10T15:08:06;13.73;;;12.43;;
19329;SDS011;9799;48.214;16.388;2023-06-10T15:11:29;14.30;;;12.90;;
19329;SDS011;9799;48.214;16.388;2023-06-10T15:14:50;14.85;;;13.45;;
19329;SDS011;9799;48.214;16.388;2023-06-10T15:18:11;14.77;;;13.30;;
19329;SDS011;9799;48.214;16.388;2023-06-10T15:21:32;14.32;;;12.95;;
19329;SDS011;9799;48.214;16.388;2023-06-10T15:24:54;13.52;;;12.32;;
19329;SDS011;9799;48.214;16.388;2023-06-10T15:28:18;12.52;;;11.32;;
19329;SDS011;9799;48.214;16.388;2023-06-10T15:31:39;13.02;;;8.45;;
19329;SDS011;9799;48.214;16.388;2023-06-10T15:35:00;6.63;;;5.18;;
19329;SDS011;9799;48.214;16.388;2023-06-10T15:38:21;8.05;;;7.07;;
19329;SDS011;9799;48.214;16.388;2023-06-10T15:41:43;9.88;;;6.95;;
19329;SDS011;9799;48.214;16.388;2023-06-10T15:45:06;10.23;;;8.38;;
19329;SDS011;9799;48.214;16.388;2023-06-10T15:48:27;10.05;;;8.20;;
19329;SDS011;9799;48.214;16.388;2023-06-10T15:51:48;10.05;;;7.60;;
19329;SDS011;9799;48.214;16.388;2023-06-10T15:55:09;10.18;;;9.02;;
19329;SDS011;9799;48.214;16.388;2023-06-10T15:58:30;9.70;;;8.75;;
19329;SDS011;9799;48.214;16.388;2023-06-10T16:01:53;16.38;;;14.23;;
19329;SDS011;9799;48.214;16.388;2023-06-10T16:05:14;14.07;;;12.70;;
19329;SDS011;9799;48.214;16.388;2023-06-10T16:08:35;14.93;;;11.50;;
19329;SDS011;9799;48.214;16.388;2023-06-10T16:11:57;11.52;;;9.27;;
19329;SDS011;9799;48.214;16.388;2023-06-10T16:15:18;10.75;;;9.23;;
19329;SDS011;9799;48.214;16.388;2023-06-10T16:18:40;10.80;;;9.05;;
19329;SDS011;9799;48.214;16.388;2023-06-10T16:22:02;11.10;;;9.63;;
19329;SDS011;9799;48.214;16.388;2023-06-10T16:25:23;11.30;;;9.63;;
19329;SDS011;9799;48.214;16.388;2023-06-10T16:28:44;11.15;;;10.05;;
19329;SDS011;9799;48.214;16.388;2023-06-10T16:32:06;11.40;;;10.20;;
19329;SDS011;9799;48.214;16.388;2023-06-10T16:35:29;10.23;;;8.70;;
19329;SDS011;9799;48.214;16.388;2023-06-10T16:38:50;13.60;;;10.23;;
19329;SDS011;9799;48.214;16.388;2023-06-10T16:42:13;12.50;;;9.55;;
19329;SDS011;9799;48.214;16.388;2023-06-10T16:45:34;12.40;;;10.60;;
19329;SDS011;9799;48.214;16.388;2023-06-10T16:48:56;12.45;;;10.32;;
19329;SDS011;9799;48.214;16.388;2023-06-10T16:52:18;12.75;;;10.55;;
19329;SDS011;9799;48.214;16.388;2023-06-10T16:55:39;13.88;;;11.60;;
19329;SDS011;9799;48.214;16.388;2023-06-10T16:59:00;12.57;;;10.65;;
19329;SDS011;9799;48.214;16.388;2023-06-10T17:02:22;13.07;;;11.05;;
19329;SDS011;9799;48.214;16.388;2023-06-10T17:05:45;13.55;;;11.65;;
19329;SDS011;9799;48.214;16.388;2023-06-10T17:09:07;13.30;;;11.90;;
19329;SDS011;9799;48.214;16.388;2023-06-10T17:12:29;12.77;;;10.93;;
19329;SDS011;9799;48.214;16.388;2023-06-10T17:15:50;12.93;;;11.35;;
19329;SDS011;9799;48.214;16.388;2023-06-10T17:19:11;13.60;;;11.50;;
19329;SDS011;9799;48.214;16.388;2023-06-10T17:22:32;21.52;;;19.23;;
19329;SDS011;9799;48.214;16.388;2023-06-10T17:25:55;13.80;;;12.40;;
19329;SDS011;9799;48.214;16.388;2023-06-10T17:29:16;12.73;;;11.43;;
19329;SDS011;9799;48.214;16.388;2023-06-10T17:32:39;12.38;;;11.18;;
19329;SDS011;9799;48.214;16.388;2023-06-10T17:36:00;16.85;;;12.35;;
19329;SDS011;9799;48.214;16.388;2023-06-10T17:39:21;15.30;;;11.25;;
19329;SDS011;9799;48.214;16.388;2023-06-10T17:42:44;13.75;;;12.30;;
19329;SDS011;9799;48.214;16.388;2023-06-10T17:46:05;13.02;;;11.70;;
19329;SDS011;9799;48.214;16.388;2023-06-10T17:49:26;12.57;;;11.05;;
19329;SDS011;9799;48.214;16.388;2023-06-10T17:52:47;19.00;;;15.05;;
19329;SDS011;9799;48.214;16.388;2023-06-10T17:56:08;12.30;;;11.00;;
19329;SDS011;9799;48.214;16.388;2023-06-10T17:59:31;12.93;;;11.70;;
19329;SDS011;9799;48.214;16.388;2023-06-10T18:02:52;12.70;;;11.48;;
19329;SDS011;9799;48.214;16.388;2023-06-10T18:06:13;13.95;;;12.63;;
19329;SDS011;9799;48.214;16.388;2023-06-10T18:09:34;14.43;;;12.80;;
19329;SDS011;9799;48.214;16.388;2023-06-10T18:12:55;14.15;;;12.38;;
19329;SDS011;9799;48.214;16.388;2023-06-10T18:16:18;14.82;;;13.15;;
19329;SDS011;9799;48.214;16.388;2023-06-10T18:19:40;14.40;;;13.00;;
19329;SDS011;9799;48.214;16.388;2023-06-10T18:23:01;13.32;;;12.00;;
19329;SDS011;9799;48.214;16.388;2023-06-10T18:26:22;13.55;;;12.15;;
19329;SDS011;9799;48.214;16.388;2023-06-10T18:29:44;13.20;;;11.90;;
19329;SDS011;9799;48.214;16.388;2023-06-10T18:33:06;15.05;;;13.48;;
19329;SDS011;9799;48.214;16.388;2023-06-10T18:36:27;14.05;;;12.63;;
19329;SDS011;9799;48.214;16.388;2023-06-10T18:39:49;20.15;;;14.35;;
19329;SDS011;9799;48.214;16.388;2023-06-10T18:43:10;14.35;;;12.85;;
19329;SDS011;9799;48.214;16.388;2023-06-10T18:46:32;15.35;;;13.85;;
19329;SDS011;9799;48.214;16.388;2023-06-10T18:49:54;16.05;;;13.85;;
19329;SDS011;9799;48.214;16.388;2023-06-10T18:53:15;15.23;;;13.73;;
19329;SDS011;9799;48.214;16.388;2023-06-10T18:56:36;14.32;;;13.07;;
19329;SDS011;9799;48.214;16.388;2023-06-10T18:59:58;16.48;;;14.93;;
19329;SDS011;9799;48.214;16.388;2023-06-10T19:03:19;20.60;;;14.52;;
19329;SDS011;9799;48.214;16.388;2023-06-10T19:06:41;17.95;;;16.17;;
19329;SDS011;9799;48.214;16.388;2023-06-10T19:10:02;17.65;;;15.73;;
19329;SDS011;9799;48.214;16.388;2023-06-10T19:13:25;17.17;;;15.45;;
19329;SDS011;9799;48.214;16.388;2023-06-10T19:16:47;16.40;;;14.85;;
19329;SDS011;9799;48.214;16.388;2023-06-10T19:20:08;14.95;;;13.63;;
19329;SDS011;9799;48.214;16.388;2023-06-10T19:23:32;15.05;;;13.65;;
19329;SDS011;9799;48.214;16.388;2023-06-10T19:26:55;17.85;;;14.63;;
19329;SDS011;9799;48.214;16.388;2023-06-10T19:30:16;18.98;;;12.30;;
19329;SDS011;9799;48.214;16.388;2023-06-10T19:33:37;15.88;;;14.45;;
19329;SDS011;9799;48.214;16.388;2023-06-10T19:36:58;15.35;;;12.75;;
19329;SDS011;9799;48.214;16.388;2023-06-10T19:40:21;13.13;;;11.85;;
19329;SDS011;9799;48.214;16.388;2023-06-10T19:43:42;16.08;;;11.23;;
19329;SDS011;9799;48.214;16.388;2023-06-10T19:47:04;12.85;;;11.68;;
19329;SDS011;9799;48.214;16.388;2023-06-10T19:50:26;13.05;;;11.85;;
19329;SDS011;9799;48.214;16.388;2023-06-10T19:53:47;14.10;;;12.70;;
19329;SDS011;9799;48.214;16.388;2023-06-10T19:57:10;12.82;;;11.68;;